sensor_id;sensor_type;location;lat;lon;timestamp;temperature;humidity
48978;DHT22;34793;48.940;2.618;2022-10-17T00:01:28;23.80;89.30
48978;DHT22;34793;48.940;2.618;2022-10-17T00:03:53;23.90;89.30
48978;DHT22;34793;48.940;2.618;2022-10-17T00:06:19;24.00;89.40
48978;DHT22;34793;48.940;2.618;2022-10-17T00:08:44;24.00;89.10
48978;DHT22;34793;48.940;2.618;2022-10-17T00:11:16;24.10;88.80
48978;DHT22;34793;48.940;2.618;2022-10-17T00:13:42;24.00;88.90
48978;DHT22;34793;48.940;2.618;2022-10-17T00:16:07;23.90;89.30
48978;DHT22;34793;48.940;2.618;2022-10-17T00:18:33;24.00;89.10
48978;DHT22;34793;48.940;2.618;2022-10-17T00:20:58;24.00;88.70
48978;DHT22;34793;48.940;2.618;2022-10-17T00:23:24;23.90;88.80
48978;DHT22;34793;48.940;2.618;2022-10-17T00:25:58;24.00;88.80
48978;DHT22;34793;48.940;2.618;2022-10-17T00:28:24;24.10;88.60
48978;DHT22;34793;48.940;2.618;2022-10-17T00:30:56;24.00;88.50
48978;DHT22;34793;48.940;2.618;2022-10-17T00:33:22;24.00;88.60
48978;DHT22;34793;48.940;2.618;2022-10-17T00:35:47;24.10;88.40
48978;DHT22;34793;48.940;2.618;2022-10-17T00:38:18;24.00;88.40
48978;DHT22;34793;48.940;2.618;2022-10-17T00:40:43;24.10;88.40
48978;DHT22;34793;48.940;2.618;2022-10-17T00:43:15;24.10;88.10
48978;DHT22;34793;48.940;2.618;2022-10-17T00:45:41;24.00;88.20
48978;DHT22;34793;48.940;2.618;2022-10-17T00:48:07;24.10;88.00
48978;DHT22;34793;48.940;2.618;2022-10-17T00:50:34;24.10;87.50
48978;DHT22;34793;48.940;2.618;2022-10-17T00:53:00;24.20;87.30
48978;DHT22;34793;48.940;2.618;2022-10-17T00:55:27;24.20;86.90
48978;DHT22;34793;48.940;2.618;2022-10-17T00:57:55;24.20;87.20
48978;DHT22;34793;48.940;2.618;2022-10-17T01:00:21;24.10;87.10
48978;DHT22;34793;48.940;2.618;2022-10-17T01:02:48;24.20;86.90
48978;DHT22;34793;48.940;2.618;2022-10-17T01:05:14;24.20;86.30
48978;DHT22;34793;48.940;2.618;2022-10-17T01:07:40;24.30;86.10
48978;DHT22;34793;48.940;2.618;2022-10-17T01:10:06;24.20;86.30
48978;DHT22;34793;48.940;2.618;2022-10-17T01:22:46;24.00;86.70
48978;DHT22;34793;48.940;2.618;2022-10-17T01:35:35;23.90;86.60
48978;DHT22;34793;48.940;2.618;2022-10-17T01:38:05;23.80;87.40
48978;DHT22;34793;48.940;2.618;2022-10-17T01:40:55;23.80;86.80
48978;DHT22;34793;48.940;2.618;2022-10-17T01:43:22;23.90;86.60
48978;DHT22;34793;48.940;2.618;2022-10-17T01:45:49;23.90;86.50
48978;DHT22;34793;48.940;2.618;2022-10-17T01:48:17;24.00;86.40
48978;DHT22;34793;48.940;2.618;2022-10-17T01:50:46;24.00;86.30
48978;DHT22;34793;48.940;2.618;2022-10-17T01:53:13;24.00;86.20
48978;DHT22;34793;48.940;2.618;2022-10-17T01:55:41;23.90;86.20
48978;DHT22;34793;48.940;2.618;2022-10-17T01:58:19;23.90;86.80
48978;DHT22;34793;48.940;2.618;2022-10-17T02:00:46;23.90;86.60
48978;DHT22;34793;48.940;2.618;2022-10-17T02:03:14;23.90;86.50
48978;DHT22;34793;48.940;2.618;2022-10-17T02:05:41;24.00;86.30
48978;DHT22;34793;48.940;2.618;2022-10-17T02:08:07;24.00;86.00
48978;DHT22;34793;48.940;2.618;2022-10-17T02:21:27;23.70;86.70
48978;DHT22;34793;48.940;2.618;2022-10-17T02:24:38;23.60;86.80
48978;DHT22;34793;48.940;2.618;2022-10-17T02:26:45;23.70;86.70
48978;DHT22;34793;48.940;2.618;2022-10-17T02:29:15;23.50;87.00
48978;DHT22;34793;48.940;2.618;2022-10-17T02:31:46;23.50;87.20
48978;DHT22;34793;48.940;2.618;2022-10-17T02:36:42;23.60;86.80
48978;DHT22;34793;48.940;2.618;2022-10-17T02:39:09;23.60;86.40
48978;DHT22;34793;48.940;2.618;2022-10-17T02:41:35;23.60;86.30
48978;DHT22;34793;48.940;2.618;2022-10-17T02:44:02;23.70;86.00
48978;DHT22;34793;48.940;2.618;2022-10-17T02:46:29;23.70;86.20
48978;DHT22;34793;48.940;2.618;2022-10-17T02:49:00;23.70;85.90
48978;DHT22;34793;48.940;2.618;2022-10-17T02:52:11;23.70;85.90
48978;DHT22;34793;48.940;2.618;2022-10-17T02:54:19;23.60;86.00
48978;DHT22;34793;48.940;2.618;2022-10-17T02:56:49;23.60;86.40
48978;DHT22;34793;48.940;2.618;2022-10-17T02:59:15;23.50;86.40
48978;DHT22;34793;48.940;2.618;2022-10-17T03:01:42;23.50;86.30
48978;DHT22;34793;48.940;2.618;2022-10-17T03:04:09;23.50;86.30
48978;DHT22;34793;48.940;2.618;2022-10-17T03:06:35;23.60;85.90
48978;DHT22;34793;48.940;2.618;2022-10-17T03:09:00;23.60;85.80
48978;DHT22;34793;48.940;2.618;2022-10-17T03:11:26;23.70;85.40
48978;DHT22;34793;48.940;2.618;2022-10-17T03:13:51;23.80;85.50
48978;DHT22;34793;48.940;2.618;2022-10-17T03:16:17;23.70;85.60
48978;DHT22;34793;48.940;2.618;2022-10-17T03:18:42;23.70;85.70
48978;DHT22;34793;48.940;2.618;2022-10-17T03:21:08;23.70;85.60
48978;DHT22;34793;48.940;2.618;2022-10-17T03:23:33;23.70;85.60
48978;DHT22;34793;48.940;2.618;2022-10-17T03:26:02;23.70;85.70
48978;DHT22;34793;48.940;2.618;2022-10-17T03:28:27;23.70;85.60
48978;DHT22;34793;48.940;2.618;2022-10-17T03:30:53;23.70;85.20
48978;DHT22;34793;48.940;2.618;2022-10-17T03:33:18;23.60;85.20
48978;DHT22;34793;48.940;2.618;2022-10-17T03:35:44;23.60;85.30
48978;DHT22;34793;48.940;2.618;2022-10-17T03:38:09;23.60;85.30
48978;DHT22;34793;48.940;2.618;2022-10-17T03:40:34;23.50;85.50
48978;DHT22;34793;48.940;2.618;2022-10-17T03:43:00;23.50;85.40
48978;DHT22;34793;48.940;2.618;2022-10-17T03:45:25;23.50;84.90
48978;DHT22;34793;48.940;2.618;2022-10-17T03:47:51;23.50;85.10
48978;DHT22;34793;48.940;2.618;2022-10-17T03:50:16;23.40;85.40
48978;DHT22;34793;48.940;2.618;2022-10-17T03:52:45;23.40;85.10
48978;DHT22;34793;48.940;2.618;2022-10-17T03:55:10;23.40;85.00
48978;DHT22;34793;48.940;2.618;2022-10-17T03:57:35;23.40;85.30
48978;DHT22;34793;48.940;2.618;2022-10-17T04:00:02;23.20;85.30
48978;DHT22;34793;48.940;2.618;2022-10-17T04:02:27;23.20;85.70
48978;DHT22;34793;48.940;2.618;2022-10-17T04:04:53;23.10;86.10
48978;DHT22;34793;48.940;2.618;2022-10-17T04:07:18;23.20;86.20
48978;DHT22;34793;48.940;2.618;2022-10-17T04:09:44;23.20;86.00
48978;DHT22;34793;48.940;2.618;2022-10-17T04:12:09;23.20;86.10
48978;DHT22;34793;48.940;2.618;2022-10-17T04:14:35;23.20;86.00
48978;DHT22;34793;48.940;2.618;2022-10-17T04:17:01;23.20;86.00
48978;DHT22;34793;48.940;2.618;2022-10-17T04:19:26;23.10;86.30
48978;DHT22;34793;48.940;2.618;2022-10-17T04:21:52;22.90;86.80
48978;DHT22;34793;48.940;2.618;2022-10-17T04:24:17;22.90;87.00
48978;DHT22;34793;48.940;2.618;2022-10-17T04:26:43;23.00;86.50
48978;DHT22;34793;48.940;2.618;2022-10-17T04:29:08;23.20;86.60
48978;DHT22;34793;48.940;2.618;2022-10-17T04:31:34;23.20;86.10
48978;DHT22;34793;48.940;2.618;2022-10-17T04:34:00;23.20;86.10
48978;DHT22;34793;48.940;2.618;2022-10-17T04:36:25;23.20;85.70
48978;DHT22;34793;48.940;2.618;2022-10-17T04:38:51;23.10;86.40
48978;DHT22;34793;48.940;2.618;2022-10-17T04:41:16;23.10;86.20
48978;DHT22;34793;48.940;2.618;2022-10-17T04:43:42;23.10;86.30
48978;DHT22;34793;48.940;2.618;2022-10-17T04:46:09;23.20;85.60
48978;DHT22;34793;48.940;2.618;2022-10-17T04:48:35;23.30;85.70
48978;DHT22;34793;48.940;2.618;2022-10-17T04:51:11;23.20;85.70
48978;DHT22;34793;48.940;2.618;2022-10-17T04:53:37;23.20;86.10
48978;DHT22;34793;48.940;2.618;2022-10-17T04:56:07;23.20;85.50
48978;DHT22;34793;48.940;2.618;2022-10-17T04:58:33;23.10;86.20
48978;DHT22;34793;48.940;2.618;2022-10-17T05:00:58;23.20;85.80
48978;DHT22;34793;48.940;2.618;2022-10-17T05:03:24;23.20;86.00
48978;DHT22;34793;48.940;2.618;2022-10-17T05:05:49;23.20;85.80
48978;DHT22;34793;48.940;2.618;2022-10-17T05:08:15;23.30;85.50
48978;DHT22;34793;48.940;2.618;2022-10-17T05:10:42;23.30;85.60
48978;DHT22;34793;48.940;2.618;2022-10-17T05:13:07;23.10;85.80
48978;DHT22;34793;48.940;2.618;2022-10-17T05:15:33;23.20;85.50
48978;DHT22;34793;48.940;2.618;2022-10-17T05:17:58;23.10;85.80
48978;DHT22;34793;48.940;2.618;2022-10-17T05:20:24;23.20;86.30
48978;DHT22;34793;48.940;2.618;2022-10-17T05:22:49;23.10;85.80
48978;DHT22;34793;48.940;2.618;2022-10-17T05:25:15;23.20;85.80
48978;DHT22;34793;48.940;2.618;2022-10-17T05:27:40;23.20;85.90
48978;DHT22;34793;48.940;2.618;2022-10-17T05:30:06;23.30;85.60
48978;DHT22;34793;48.940;2.618;2022-10-17T05:32:32;23.20;85.90
48978;DHT22;34793;48.940;2.618;2022-10-17T05:34:57;23.20;85.70
48978;DHT22;34793;48.940;2.618;2022-10-17T05:37:23;23.30;85.60
48978;DHT22;34793;48.940;2.618;2022-10-17T05:39:48;23.20;85.70
48978;DHT22;34793;48.940;2.618;2022-10-17T05:42:14;23.30;85.20
48978;DHT22;34793;48.940;2.618;2022-10-17T05:44:39;23.20;85.80
48978;DHT22;34793;48.940;2.618;2022-10-17T05:47:06;23.30;85.70
48978;DHT22;34793;48.940;2.618;2022-10-17T05:49:31;23.30;85.70
48978;DHT22;34793;48.940;2.618;2022-10-17T05:52:06;23.30;85.90
48978;DHT22;34793;48.940;2.618;2022-10-17T05:54:31;23.20;86.20
48978;DHT22;34793;48.940;2.618;2022-10-17T05:56:57;23.10;86.60
48978;DHT22;34793;48.940;2.618;2022-10-17T05:59:25;23.10;86.30
48978;DHT22;34793;48.940;2.618;2022-10-17T06:01:51;23.00;86.50
48978;DHT22;34793;48.940;2.618;2022-10-17T06:04:16;23.10;86.60
48978;DHT22;34793;48.940;2.618;2022-10-17T06:06:42;23.10;86.70
48978;DHT22;34793;48.940;2.618;2022-10-17T06:09:08;23.10;86.60
48978;DHT22;34793;48.940;2.618;2022-10-17T06:11:34;23.20;86.50
48978;DHT22;34793;48.940;2.618;2022-10-17T06:14:00;23.30;86.50
48978;DHT22;34793;48.940;2.618;2022-10-17T06:16:25;23.40;86.60
48978;DHT22;34793;48.940;2.618;2022-10-17T06:18:51;23.40;86.40
48978;DHT22;34793;48.940;2.618;2022-10-17T06:21:18;23.40;86.50
48978;DHT22;34793;48.940;2.618;2022-10-17T06:23:45;23.40;87.00
48978;DHT22;34793;48.940;2.618;2022-10-17T06:26:10;23.40;86.90
48978;DHT22;34793;48.940;2.618;2022-10-17T06:28:36;23.40;86.80
48978;DHT22;34793;48.940;2.618;2022-10-17T06:31:05;23.40;86.90
48978;DHT22;34793;48.940;2.618;2022-10-17T06:33:30;23.40;87.30
48978;DHT22;34793;48.940;2.618;2022-10-17T06:35:56;23.50;86.60
48978;DHT22;34793;48.940;2.618;2022-10-17T06:38:21;23.60;86.60
48978;DHT22;34793;48.940;2.618;2022-10-17T06:40:47;23.50;86.60
48978;DHT22;34793;48.940;2.618;2022-10-17T06:43:13;23.50;86.40
48978;DHT22;34793;48.940;2.618;2022-10-17T06:45:39;23.50;86.30
48978;DHT22;34793;48.940;2.618;2022-10-17T06:48:04;23.40;86.20
48978;DHT22;34793;48.940;2.618;2022-10-17T06:50:30;23.50;86.70
48978;DHT22;34793;48.940;2.618;2022-10-17T06:52:55;23.40;86.90
48978;DHT22;34793;48.940;2.618;2022-10-17T06:55:21;23.40;87.20
48978;DHT22;34793;48.940;2.618;2022-10-17T06:57:47;23.40;87.00
48978;DHT22;34793;48.940;2.618;2022-10-17T07:00:12;23.30;87.10
48978;DHT22;34793;48.940;2.618;2022-10-17T07:02:38;23.30;87.30
48978;DHT22;34793;48.940;2.618;2022-10-17T07:05:04;23.30;87.20
48978;DHT22;34793;48.940;2.618;2022-10-17T07:07:30;23.30;87.40
48978;DHT22;34793;48.940;2.618;2022-10-17T07:09:56;23.20;87.60
48978;DHT22;34793;48.940;2.618;2022-10-17T07:12:21;23.20;87.90
48978;DHT22;34793;48.940;2.618;2022-10-17T07:14:48;23.30;87.80
48978;DHT22;34793;48.940;2.618;2022-10-17T07:17:15;23.30;87.50
48978;DHT22;34793;48.940;2.618;2022-10-17T07:19:40;23.30;87.80
48978;DHT22;34793;48.940;2.618;2022-10-17T07:22:08;23.30;87.70
48978;DHT22;34793;48.940;2.618;2022-10-17T07:24:33;23.30;87.90
48978;DHT22;34793;48.940;2.618;2022-10-17T07:26:59;23.20;88.10
48978;DHT22;34793;48.940;2.618;2022-10-17T07:29:24;23.20;88.10
48978;DHT22;34793;48.940;2.618;2022-10-17T07:31:55;23.10;88.50
48978;DHT22;34793;48.940;2.618;2022-10-17T07:34:20;23.00;88.90
48978;DHT22;34793;48.940;2.618;2022-10-17T07:36:46;22.80;89.50
48978;DHT22;34793;48.940;2.618;2022-10-17T07:39:11;22.90;89.90
48978;DHT22;34793;48.940;2.618;2022-10-17T07:41:37;23.00;89.10
48978;DHT22;34793;48.940;2.618;2022-10-17T07:44:04;23.00;89.30
48978;DHT22;34793;48.940;2.618;2022-10-17T07:46:29;23.10;89.20
48978;DHT22;34793;48.940;2.618;2022-10-17T07:48:55;23.10;88.80
48978;DHT22;34793;48.940;2.618;2022-10-17T07:51:20;23.10;89.00
48978;DHT22;34793;48.940;2.618;2022-10-17T07:53:46;23.20;89.00
48978;DHT22;34793;48.940;2.618;2022-10-17T07:56:12;23.20;89.00
48978;DHT22;34793;48.940;2.618;2022-10-17T07:58:37;23.10;89.20
48978;DHT22;34793;48.940;2.618;2022-10-17T08:01:04;23.10;89.20
48978;DHT22;34793;48.940;2.618;2022-10-17T08:03:30;23.30;89.30
48978;DHT22;34793;48.940;2.618;2022-10-17T08:05:56;23.30;89.30
48978;DHT22;34793;48.940;2.618;2022-10-17T08:08:22;23.30;89.40
48978;DHT22;34793;48.940;2.618;2022-10-17T08:10:47;23.40;89.30
48978;DHT22;34793;48.940;2.618;2022-10-17T08:13:13;23.40;88.70
48978;DHT22;34793;48.940;2.618;2022-10-17T08:15:42;23.40;89.10
48978;DHT22;34793;48.940;2.618;2022-10-17T08:18:07;23.60;88.90
48978;DHT22;34793;48.940;2.618;2022-10-17T08:20:33;23.40;89.00
48978;DHT22;34793;48.940;2.618;2022-10-17T08:22:58;23.60;88.80
48978;DHT22;34793;48.940;2.618;2022-10-17T08:25:24;23.50;89.00
48978;DHT22;34793;48.940;2.618;2022-10-17T08:27:49;23.40;89.10
48978;DHT22;34793;48.940;2.618;2022-10-17T08:30:15;23.30;89.50
48978;DHT22;34793;48.940;2.618;2022-10-17T08:32:41;23.30;89.90
48978;DHT22;34793;48.940;2.618;2022-10-17T08:35:06;23.10;90.30
48978;DHT22;34793;48.940;2.618;2022-10-17T08:37:32;23.20;90.30
48978;DHT22;34793;48.940;2.618;2022-10-17T08:39:57;23.40;90.40
48978;DHT22;34793;48.940;2.618;2022-10-17T08:48:00;23.40;90.30
48978;DHT22;34793;48.940;2.618;2022-10-17T08:50:39;23.50;90.50
48978;DHT22;34793;48.940;2.618;2022-10-17T08:55:50;23.60;90.20
48978;DHT22;34793;48.940;2.618;2022-10-17T08:58:19;23.50;90.40
48978;DHT22;34793;48.940;2.618;2022-10-17T09:01:08;23.50;90.50
48978;DHT22;34793;48.940;2.618;2022-10-17T09:06:18;23.60;90.70
48978;DHT22;34793;48.940;2.618;2022-10-17T09:08:51;23.60;90.60
48978;DHT22;34793;48.940;2.618;2022-10-17T09:14:11;23.70;90.30
48978;DHT22;34793;48.940;2.618;2022-10-17T09:16:48;23.80;90.30
48978;DHT22;34793;48.940;2.618;2022-10-17T09:19:18;23.90;90.10
48978;DHT22;34793;48.940;2.618;2022-10-17T09:21:46;23.80;90.20
48978;DHT22;34793;48.940;2.618;2022-10-17T09:24:22;23.80;90.40
48978;DHT22;34793;48.940;2.618;2022-10-17T09:26:49;23.90;90.30
48978;DHT22;34793;48.940;2.618;2022-10-17T09:29:22;23.90;90.00
48978;DHT22;34793;48.940;2.618;2022-10-17T09:31:56;24.00;90.00
48978;DHT22;34793;48.940;2.618;2022-10-17T09:34:24;24.10;90.10
48978;DHT22;34793;48.940;2.618;2022-10-17T09:36:51;24.00;90.00
48978;DHT22;34793;48.940;2.618;2022-10-17T09:39:17;23.80;90.40
48978;DHT22;34793;48.940;2.618;2022-10-17T09:44:17;23.70;90.50
48978;DHT22;34793;48.940;2.618;2022-10-17T09:46:50;23.60;90.70
48978;DHT22;34793;48.940;2.618;2022-10-17T09:49:18;23.70;90.90
48978;DHT22;34793;48.940;2.618;2022-10-17T09:51:44;23.70;91.00
48978;DHT22;34793;48.940;2.618;2022-10-17T09:54:21;23.60;91.30
48978;DHT22;34793;48.940;2.618;2022-10-17T09:57:01;23.50;91.40
48978;DHT22;34793;48.940;2.618;2022-10-17T09:59:28;23.60;91.30
48978;DHT22;34793;48.940;2.618;2022-10-17T10:01:55;23.70;91.60
48978;DHT22;34793;48.940;2.618;2022-10-17T10:04:31;23.70;91.40
48978;DHT22;34793;48.940;2.618;2022-10-17T10:07:04;23.80;91.30
48978;DHT22;34793;48.940;2.618;2022-10-17T10:09:31;23.90;91.30
48978;DHT22;34793;48.940;2.618;2022-10-17T10:11:58;24.00;91.00
48978;DHT22;34793;48.940;2.618;2022-10-17T10:14:28;24.20;91.10
48978;DHT22;34793;48.940;2.618;2022-10-17T10:16:54;24.40;91.00
48978;DHT22;34793;48.940;2.618;2022-10-17T10:22:33;24.50;90.30
48978;DHT22;34793;48.940;2.618;2022-10-17T10:24:33;24.60;90.40
48978;DHT22;34793;48.940;2.618;2022-10-17T10:27:00;24.80;90.20
48978;DHT22;34793;48.940;2.618;2022-10-17T10:29:34;24.90;90.10
48978;DHT22;34793;48.940;2.618;2022-10-17T10:32:16;24.80;90.00
48978;DHT22;34793;48.940;2.618;2022-10-17T10:34:53;24.90;90.10
48978;DHT22;34793;48.940;2.618;2022-10-17T10:39:49;24.90;90.10
48978;DHT22;34793;48.940;2.618;2022-10-17T10:42:19;24.80;90.30
48978;DHT22;34793;48.940;2.618;2022-10-17T10:44:45;24.80;90.60
48978;DHT22;34793;48.940;2.618;2022-10-17T10:49:45;24.60;90.90
48978;DHT22;34793;48.940;2.618;2022-10-17T10:52:14;24.60;91.10
48978;DHT22;34793;48.940;2.618;2022-10-17T10:54:44;24.60;91.00
48978;DHT22;34793;48.940;2.618;2022-10-17T10:57:12;24.60;91.10
48978;DHT22;34793;48.940;2.618;2022-10-17T10:59:40;24.40;91.00
48978;DHT22;34793;48.940;2.618;2022-10-17T11:10:07;23.90;91.90
48978;DHT22;34793;48.940;2.618;2022-10-17T11:12:40;24.00;91.80
48978;DHT22;34793;48.940;2.618;2022-10-17T11:15:08;24.20;91.50
48978;DHT22;34793;48.940;2.618;2022-10-17T11:20:26;24.30;91.50
48978;DHT22;34793;48.940;2.618;2022-10-17T11:23:13;24.40;91.20
48978;DHT22;34793;48.940;2.618;2022-10-17T11:25:44;24.50;91.40
48978;DHT22;34793;48.940;2.618;2022-10-17T11:28:14;24.60;91.20
48978;DHT22;34793;48.940;2.618;2022-10-17T11:30:44;24.50;91.10
48978;DHT22;34793;48.940;2.618;2022-10-17T11:33:11;24.60;91.20
48978;DHT22;34793;48.940;2.618;2022-10-17T11:35:40;24.60;91.10
48978;DHT22;34793;48.940;2.618;2022-10-17T11:38:11;24.50;91.20
48978;DHT22;34793;48.940;2.618;2022-10-17T11:40:39;24.50;91.60
48978;DHT22;34793;48.940;2.618;2022-10-17T11:43:10;24.50;91.60
48978;DHT22;34793;48.940;2.618;2022-10-17T11:45:46;24.40;91.80
48978;DHT22;34793;48.940;2.618;2022-10-17T11:48:23;24.40;91.70
48978;DHT22;34793;48.940;2.618;2022-10-17T11:50:52;24.30;92.20
48978;DHT22;34793;48.940;2.618;2022-10-17T11:53:23;24.40;91.80
48978;DHT22;34793;48.940;2.618;2022-10-17T11:55:51;24.40;91.80
48978;DHT22;34793;48.940;2.618;2022-10-17T12:08:47;24.70;91.30
48978;DHT22;34793;48.940;2.618;2022-10-17T12:17:53;24.70;91.20
48978;DHT22;34793;48.940;2.618;2022-10-17T12:20:15;24.70;91.50
48978;DHT22;34793;48.940;2.618;2022-10-17T12:25:31;24.50;91.90
48978;DHT22;34793;48.940;2.618;2022-10-17T12:31:00;24.40;92.10
48978;DHT22;34793;48.940;2.618;2022-10-17T12:33:33;24.40;92.10
48978;DHT22;34793;48.940;2.618;2022-10-17T12:38:47;24.10;92.50
48978;DHT22;34793;48.940;2.618;2022-10-17T12:41:13;24.10;92.30
48978;DHT22;34793;48.940;2.618;2022-10-17T12:43:42;24.10;92.60
48978;DHT22;34793;48.940;2.618;2022-10-17T12:46:08;24.10;92.60
48978;DHT22;34793;48.940;2.618;2022-10-17T12:51:10;24.20;92.20
48978;DHT22;34793;48.940;2.618;2022-10-17T12:53:38;24.40;92.00
48978;DHT22;34793;48.940;2.618;2022-10-17T12:56:06;24.20;92.20
48978;DHT22;34793;48.940;2.618;2022-10-17T12:58:31;24.20;92.30
48978;DHT22;34793;48.940;2.618;2022-10-17T13:00:58;24.20;92.10
48978;DHT22;34793;48.940;2.618;2022-10-17T13:03:25;24.30;92.20
48978;DHT22;34793;48.940;2.618;2022-10-17T13:05:51;24.50;91.80
48978;DHT22;34793;48.940;2.618;2022-10-17T13:08:28;24.60;91.50
48978;DHT22;34793;48.940;2.618;2022-10-17T13:10:54;24.60;91.30
48978;DHT22;34793;48.940;2.618;2022-10-17T13:13:22;24.60;91.30
48978;DHT22;34793;48.940;2.618;2022-10-17T13:15:49;24.70;91.20
48978;DHT22;34793;48.940;2.618;2022-10-17T13:18:16;24.80;91.20
48978;DHT22;34793;48.940;2.618;2022-10-17T13:20:42;24.80;91.10
48978;DHT22;34793;48.940;2.618;2022-10-17T13:23:23;24.90;91.20
48978;DHT22;34793;48.940;2.618;2022-10-17T13:28:45;24.90;90.90
48978;DHT22;34793;48.940;2.618;2022-10-17T13:31:27;25.00;91.20
48978;DHT22;34793;48.940;2.618;2022-10-17T13:33:55;25.00;91.20
48978;DHT22;34793;48.940;2.618;2022-10-17T13:36:20;25.00;91.10
48978;DHT22;34793;48.940;2.618;2022-10-17T13:38:46;24.90;90.80
48978;DHT22;34793;48.940;2.618;2022-10-17T13:41:12;24.70;91.40
48978;DHT22;34793;48.940;2.618;2022-10-17T13:43:38;24.60;91.70
48978;DHT22;34793;48.940;2.618;2022-10-17T13:46:04;24.50;91.70
48978;DHT22;34793;48.940;2.618;2022-10-17T13:48:31;24.50;91.70
48978;DHT22;34793;48.940;2.618;2022-10-17T13:50:58;24.50;91.60
48978;DHT22;34793;48.940;2.618;2022-10-17T13:53:28;24.60;91.50
48978;DHT22;34793;48.940;2.618;2022-10-17T13:58:30;24.80;91.30
48978;DHT22;34793;48.940;2.618;2022-10-17T14:00:56;24.90;91.10
48978;DHT22;34793;48.940;2.618;2022-10-17T14:03:22;25.00;91.00
48978;DHT22;34793;48.940;2.618;2022-10-17T14:08:50;25.10;90.70
48978;DHT22;34793;48.940;2.618;2022-10-17T14:13:51;25.30;90.60
48978;DHT22;34793;48.940;2.618;2022-10-17T14:16:17;25.20;90.60
48978;DHT22;34793;48.940;2.618;2022-10-17T14:18:45;25.10;90.90
48978;DHT22;34793;48.940;2.618;2022-10-17T14:21:16;25.10;91.00
48978;DHT22;34793;48.940;2.618;2022-10-17T14:23:43;25.10;90.90
48978;DHT22;34793;48.940;2.618;2022-10-17T14:26:16;25.00;90.80
48978;DHT22;34793;48.940;2.618;2022-10-17T14:28:44;25.10;90.80
48978;DHT22;34793;48.940;2.618;2022-10-17T14:33:35;25.20;90.70
48978;DHT22;34793;48.940;2.618;2022-10-17T14:36:02;25.30;90.60
48978;DHT22;34793;48.940;2.618;2022-10-17T14:38:28;25.30;90.60
48978;DHT22;34793;48.940;2.618;2022-10-17T14:40:58;25.30;90.30
48978;DHT22;34793;48.940;2.618;2022-10-17T14:43:25;25.30;90.40
48978;DHT22;34793;48.940;2.618;2022-10-17T14:45:52;25.30;90.40
48978;DHT22;34793;48.940;2.618;2022-10-17T14:48:21;25.40;90.30
48978;DHT22;34793;48.940;2.618;2022-10-17T14:51:10;25.50;90.00
48978;DHT22;34793;48.940;2.618;2022-10-17T14:53:36;25.50;89.20
48978;DHT22;34793;48.940;2.618;2022-10-17T14:56:03;25.50;90.00
48978;DHT22;34793;48.940;2.618;2022-10-17T14:58:31;25.50;89.90
48978;DHT22;34793;48.940;2.618;2022-10-17T15:00:58;25.60;89.70
48978;DHT22;34793;48.940;2.618;2022-10-17T15:03:24;25.60;89.80
48978;DHT22;34793;48.940;2.618;2022-10-17T15:05:50;25.60;89.90
48978;DHT22;34793;48.940;2.618;2022-10-17T15:08:16;25.60;90.00
48978;DHT22;34793;48.940;2.618;2022-10-17T15:10:43;25.60;89.60
48978;DHT22;34793;48.940;2.618;2022-10-17T15:13:09;25.70;89.50
48978;DHT22;34793;48.940;2.618;2022-10-17T15:15:35;25.70;89.20
48978;DHT22;34793;48.940;2.618;2022-10-17T15:18:01;25.70;88.90
48978;DHT22;34793;48.940;2.618;2022-10-17T15:20:26;25.70;88.80
48978;DHT22;34793;48.940;2.618;2022-10-17T15:22:55;25.70;88.90
48978;DHT22;34793;48.940;2.618;2022-10-17T15:25:21;25.70;88.80
48978;DHT22;34793;48.940;2.618;2022-10-17T15:30:50;25.70;88.50
48978;DHT22;34793;48.940;2.618;2022-10-17T15:33:16;25.70;88.40
48978;DHT22;34793;48.940;2.618;2022-10-17T15:35:41;25.70;88.50
48978;DHT22;34793;48.940;2.618;2022-10-17T15:38:07;25.70;88.40
48978;DHT22;34793;48.940;2.618;2022-10-17T15:40:32;25.70;88.40
48978;DHT22;34793;48.940;2.618;2022-10-17T15:42:58;25.70;88.40
48978;DHT22;34793;48.940;2.618;2022-10-17T15:45:23;25.70;88.40
48978;DHT22;34793;48.940;2.618;2022-10-17T15:47:58;25.60;88.30
48978;DHT22;34793;48.940;2.618;2022-10-17T15:50:24;25.60;88.20
48978;DHT22;34793;48.940;2.618;2022-10-17T15:52:53;25.50;88.40
48978;DHT22;34793;48.940;2.618;2022-10-17T15:55:18;25.60;88.40
48978;DHT22;34793;48.940;2.618;2022-10-17T15:57:44;25.50;88.50
48978;DHT22;34793;48.940;2.618;2022-10-17T16:00:13;25.50;88.60
48978;DHT22;34793;48.940;2.618;2022-10-17T16:02:39;25.40;88.40
48978;DHT22;34793;48.940;2.618;2022-10-17T16:05:09;25.30;88.60
48978;DHT22;34793;48.940;2.618;2022-10-17T16:07:37;25.40;88.80
48978;DHT22;34793;48.940;2.618;2022-10-17T16:10:03;25.40;88.60
48978;DHT22;34793;48.940;2.618;2022-10-17T16:17:39;25.40;87.70
48978;DHT22;34793;48.940;2.618;2022-10-17T16:20:05;25.40;88.40
48978;DHT22;34793;48.940;2.618;2022-10-17T16:22:32;25.40;88.80
48978;DHT22;34793;48.940;2.618;2022-10-17T16:25:04;25.40;88.20
48978;DHT22;34793;48.940;2.618;2022-10-17T16:27:35;25.40;88.00
48978;DHT22;34793;48.940;2.618;2022-10-17T16:30:00;25.50;88.40
48978;DHT22;34793;48.940;2.618;2022-10-17T16:32:26;25.40;87.90
48978;DHT22;34793;48.940;2.618;2022-10-17T16:34:52;25.30;87.80
48978;DHT22;34793;48.940;2.618;2022-10-17T16:37:17;25.30;88.30
48978;DHT22;34793;48.940;2.618;2022-10-17T16:39:42;25.30;88.30
48978;DHT22;34793;48.940;2.618;2022-10-17T16:42:13;25.30;88.10
48978;DHT22;34793;48.940;2.618;2022-10-17T16:44:38;25.30;88.20
48978;DHT22;34793;48.940;2.618;2022-10-17T16:47:04;25.20;88.50
48978;DHT22;34793;48.940;2.618;2022-10-17T16:49:29;25.10;88.80
48978;DHT22;34793;48.940;2.618;2022-10-17T16:51:55;25.20;88.60
48978;DHT22;34793;48.940;2.618;2022-10-17T16:54:20;25.20;88.60
48978;DHT22;34793;48.940;2.618;2022-10-17T16:56:46;25.10;88.60
48978;DHT22;34793;48.940;2.618;2022-10-17T16:59:11;25.10;88.60
48978;DHT22;34793;48.940;2.618;2022-10-17T17:01:37;25.00;89.00
48978;DHT22;34793;48.940;2.618;2022-10-17T17:04:02;25.00;89.10
48978;DHT22;34793;48.940;2.618;2022-10-17T17:06:28;25.00;88.90
48978;DHT22;34793;48.940;2.618;2022-10-17T17:08:55;25.00;88.70
48978;DHT22;34793;48.940;2.618;2022-10-17T17:11:22;25.00;89.00
48978;DHT22;34793;48.940;2.618;2022-10-17T17:13:47;25.00;89.40
48978;DHT22;34793;48.940;2.618;2022-10-17T17:16:14;25.00;88.80
48978;DHT22;34793;48.940;2.618;2022-10-17T17:18:40;25.10;88.80
48978;DHT22;34793;48.940;2.618;2022-10-17T17:21:07;25.10;88.90
48978;DHT22;34793;48.940;2.618;2022-10-17T17:23:33;25.10;88.70
48978;DHT22;34793;48.940;2.618;2022-10-17T17:26:00;25.10;88.70
48978;DHT22;34793;48.940;2.618;2022-10-17T17:28:26;25.10;88.90
48978;DHT22;34793;48.940;2.618;2022-10-17T17:30:52;25.10;88.70